createdAt,value
2023-03-26T00:00:56.556Z,8.5
2023-03-26T00:02:12.842Z,8.5
2023-03-26T00:03:29.142Z,8.5
2023-03-26T00:06:01.732Z,8.5
2023-03-26T00:07:17.036Z,8.5
2023-03-26T00:08:33.339Z,8.5
2023-03-26T00:09:49.619Z,8.5
2023-03-26T00:11:05.909Z,8.5
2023-03-26T00:12:22.208Z,8.4
2023-03-26T00:13:38.499Z,8.4
2023-03-26T00:14:54.808Z,8.4
2023-03-26T00:16:11.098Z,8.4
2023-03-26T00:17:27.387Z,8.4
2023-03-26T00:18:43.676Z,8.4
2023-03-26T00:19:59.987Z,8.4
2023-03-26T00:21:16.277Z,8.4
2023-03-26T00:22:32.574Z,8.4
2023-03-26T00:23:47.875Z,8.4
2023-03-26T00:25:04.159Z,8.4
2023-03-26T00:26:20.465Z,8.3
2023-03-26T00:27:36.766Z,8.3
2023-03-26T00:28:53.050Z,8.3
2023-03-26T00:30:09.346Z,8.3
2023-03-26T00:31:25.631Z,8.3
2023-03-26T00:32:41.944Z,8.3
2023-03-26T00:33:58.224Z,8.3
2023-03-26T00:35:14.526Z,8.3
2023-03-26T00:36:30.821Z,8.3
2023-03-26T00:37:47.118Z,8.2
2023-03-26T00:40:19.698Z,8.2
2023-03-26T00:41:35.009Z,8.2
2023-03-26T00:42:51.300Z,8.2
2023-03-26T00:44:07.605Z,8.2
2023-03-26T00:45:23.900Z,8.2
2023-03-26T00:46:40.193Z,8.2
2023-03-26T00:47:56.490Z,8.1
2023-03-26T00:49:12.767Z,8.2
2023-03-26T00:50:29.060Z,8.1
2023-03-26T00:51:45.359Z,8.1
2023-03-26T00:53:01.648Z,8.1
2023-03-26T00:55:34.244Z,8.1
2023-03-26T00:56:50.550Z,8.1
2023-03-26T00:58:05.846Z,8.1
2023-03-26T00:59:22.147Z,8.1
2023-03-26T01:00:38.444Z,8.1
2023-03-26T01:01:54.736Z,8.1
2023-03-26T01:03:11.023Z,8.1
2023-03-26T01:04:27.315Z,8
2023-03-26T01:05:43.612Z,8.1
2023-03-26T01:06:59.912Z,8
2023-03-26T01:08:16.209Z,8.1
2023-03-26T01:09:32.506Z,8
2023-03-26T01:10:48.788Z,8
2023-03-26T01:12:05.085Z,8
2023-03-26T01:13:21.393Z,8
2023-03-26T01:14:36.689Z,8
2023-03-26T01:15:52.979Z,8
2023-03-26T01:17:09.276Z,8
2023-03-26T01:18:25.578Z,8
2023-03-26T01:19:41.867Z,8
2023-03-26T01:20:58.171Z,8
2023-03-26T01:22:14.458Z,8
2023-03-26T01:23:30.747Z,8
2023-03-26T01:26:03.340Z,8
2023-03-26T01:27:19.639Z,8
2023-03-26T01:28:35.929Z,8
2023-03-26T01:29:52.226Z,8
2023-03-26T01:31:07.525Z,7.9
2023-03-26T01:32:23.836Z,7.9
2023-03-26T01:33:40.114Z,7.9
2023-03-26T01:34:56.410Z,7.9
2023-03-26T01:36:12.697Z,7.9
2023-03-26T01:37:29.009Z,7.9
2023-03-26T01:38:45.302Z,7.9
2023-03-26T01:40:01.598Z,7.9
2023-03-26T01:41:17.893Z,7.9
2023-03-26T01:42:34.185Z,7.9
2023-03-26T01:43:50.473Z,7.9
2023-03-26T01:45:06.770Z,7.9
2023-03-26T01:46:23.073Z,7.9
2023-03-26T01:47:38.367Z,7.9
2023-03-26T01:48:54.675Z,7.9
2023-03-26T01:50:10.966Z,7.9
2023-03-26T01:51:27.248Z,7.9
2023-03-26T01:52:43.546Z,7.9
2023-03-26T01:53:59.847Z,7.9
2023-03-26T01:55:16.134Z,7.9
2023-03-26T01:56:32.437Z,7.9
2023-03-26T01:57:48.726Z,7.9
2023-03-26T01:59:05.022Z,7.9
2023-03-26T02:00:21.313Z,7.9
2023-03-26T02:01:37.609Z,7.8
2023-03-26T02:02:53.894Z,7.9
2023-03-26T02:05:25.513Z,7.9
2023-03-26T02:06:41.802Z,7.9
2023-03-26T02:07:58.103Z,7.8
2023-03-26T02:09:14.392Z,7.9
2023-03-26T02:10:30.693Z,7.8
2023-03-26T02:11:46.981Z,7.8
2023-03-26T02:13:03.260Z,7.8
2023-03-26T02:14:19.556Z,7.8
2023-03-26T02:15:35.863Z,7.7
2023-03-26T02:16:52.149Z,7.7
2023-03-26T02:18:08.445Z,7.7
2023-03-26T02:19:24.738Z,7.7
2023-03-26T02:20:40.050Z,7.7
2023-03-26T02:23:12.644Z,7.7
2023-03-26T02:24:28.925Z,7.6
2023-03-26T02:25:45.227Z,7.6
2023-03-26T02:28:17.825Z,7.6
2023-03-26T02:29:33.134Z,7.6
2023-03-26T02:30:48.453Z,7.5
2023-03-26T02:32:04.729Z,7.5
2023-03-26T02:33:21.036Z,7.5
2023-03-26T02:34:37.317Z,7.5
2023-03-26T02:35:53.614Z,7.5
2023-03-26T02:37:09.909Z,7.5
2023-03-26T02:38:26.211Z,7.5
2023-03-26T02:39:42.500Z,7.5
2023-03-26T02:46:03.981Z,7.5
2023-03-26T02:47:19.294Z,7.5
2023-03-26T02:48:34.595Z,7.5
2023-03-26T02:49:49.906Z,7.5
2023-03-26T02:51:06.193Z,7.5
2023-03-26T02:52:22.502Z,7.5
2023-03-26T02:53:38.792Z,7.5
2023-03-26T02:54:55.094Z,7.4
2023-03-26T02:56:11.393Z,7.4
2023-03-26T02:57:27.671Z,7.4
2023-03-26T02:58:43.976Z,7.4
2023-03-26T03:00:00.252Z,7.3
2023-03-26T03:02:32.848Z,7.3
2023-03-26T03:03:49.138Z,7.3
2023-03-26T03:05:05.440Z,7.3
2023-03-26T03:06:20.746Z,7.3
2023-03-26T03:07:37.041Z,7.4
2023-03-26T03:08:53.000Z,7.3
2023-03-26T03:10:09.632Z,7.3
2023-03-26T03:11:25.915Z,7.3
2023-03-26T03:12:42.217Z,7.3
2023-03-26T03:13:58.515Z,7.3
2023-03-26T03:15:14.815Z,7.3
2023-03-26T03:16:31.112Z,7.3
2023-03-26T03:17:46.409Z,7.3
2023-03-26T03:19:01.735Z,7.3
2023-03-26T03:20:18.024Z,7.3
2023-03-26T03:21:34.322Z,7.3
2023-03-26T03:22:50.614Z,7.3
2023-03-26T03:24:06.915Z,7.3
2023-03-26T03:25:23.205Z,7.3
2023-03-26T03:26:39.490Z,7.3
2023-03-26T03:27:55.787Z,7.3
2023-03-26T03:29:11.105Z,7.3
2023-03-26T03:30:27.389Z,7.3
2023-03-26T03:31:42.720Z,7.3
2023-03-26T03:32:58.020Z,7.3
2023-03-26T03:34:14.305Z,7.3
2023-03-26T03:35:30.599Z,7.3
2023-03-26T03:36:46.901Z,7.3
2023-03-26T03:38:03.204Z,7.2
2023-03-26T03:39:19.494Z,7.2
2023-03-26T03:40:35.775Z,7.2
2023-03-26T03:41:52.077Z,7.2
2023-03-26T03:43:08.365Z,7.2
2023-03-26T03:44:24.658Z,7.2
2023-03-26T03:45:40.956Z,7.2
2023-03-26T03:46:57.262Z,7.1
2023-03-26T03:48:13.558Z,7.2
2023-03-26T03:49:28.855Z,7.2
2023-03-26T03:50:45.154Z,7.2
2023-03-26T03:52:01.448Z,7.2
2023-03-26T03:54:34.033Z,7.2
2023-03-26T03:55:50.324Z,7.2
2023-03-26T03:57:06.634Z,7.3
2023-03-26T03:58:22.921Z,7.2
2023-03-26T03:59:39.206Z,7.3
2023-03-26T04:00:55.509Z,7.3
2023-03-26T04:02:11.805Z,7.3
2023-03-26T04:03:28.106Z,7.3
2023-03-26T04:04:44.385Z,7.3
2023-03-26T04:05:59.695Z,7.3
2023-03-26T04:07:15.999Z,7.3
2023-03-26T04:09:48.588Z,7.3
2023-03-26T04:11:04.877Z,7.3
2023-03-26T04:12:21.174Z,7.3
2023-03-26T04:13:37.458Z,7.3
2023-03-26T04:14:53.761Z,7.3
2023-03-26T04:16:10.048Z,7.3
2023-03-26T04:17:26.350Z,7.3
2023-03-26T04:18:42.652Z,7.2
2023-03-26T04:19:58.934Z,7.2
2023-03-26T04:21:15.207Z,7.2
2023-03-26T04:22:30.509Z,7.2
2023-03-26T04:23:46.807Z,7.2
2023-03-26T04:25:03.096Z,7.2
2023-03-26T04:26:19.357Z,7.2
2023-03-26T04:27:35.596Z,7.2
2023-03-26T04:28:51.818Z,7.2
2023-03-26T04:30:08.064Z,7.2
2023-03-26T04:31:24.314Z,7.2
2023-03-26T04:32:40.567Z,7.2
2023-03-26T04:33:56.795Z,7.2
2023-03-26T04:35:13.041Z,7.2
2023-03-26T04:36:29.289Z,7.2
2023-03-26T04:37:45.524Z,7.1
2023-03-26T04:39:00.783Z,7.1
2023-03-26T04:40:17.021Z,7.2
2023-03-26T04:41:33.251Z,7.1
2023-03-26T04:42:49.489Z,7.1
2023-03-26T04:44:05.748Z,7.1
2023-03-26T04:45:21.987Z,7.1
2023-03-26T04:46:38.215Z,7.1
2023-03-26T04:47:54.466Z,7.1
2023-03-26T04:49:10.701Z,7.1
2023-03-26T04:50:26.932Z,7.1
2023-03-26T04:51:43.169Z,7.1
2023-03-26T04:52:59.413Z,7
2023-03-26T04:54:15.665Z,7.1
2023-03-26T04:55:30.911Z,7.1
2023-03-26T04:56:47.159Z,7
2023-03-26T04:58:03.403Z,7.1
2023-03-26T04:59:19.626Z,7.1
2023-03-26T05:00:35.870Z,7.1
2023-03-26T05:01:52.124Z,7.1
2023-03-26T05:03:08.362Z,7.1
2023-03-26T05:04:24.586Z,7.1
2023-03-26T05:05:40.837Z,7.1
2023-03-26T05:06:57.082Z,7.1
2023-03-26T05:08:13.315Z,7.1
2023-03-26T05:09:29.561Z,7.1
2023-03-26T05:10:45.805Z,7.1
2023-03-26T05:12:01.053Z,7.1
2023-03-26T05:13:17.299Z,7.1
2023-03-26T05:14:33.544Z,7.1
2023-03-26T05:15:49.775Z,7
2023-03-26T05:17:06.010Z,7.1
2023-03-26T05:18:22.251Z,7.1
2023-03-26T05:19:38.504Z,7.1
2023-03-26T05:20:54.739Z,7.1
2023-03-26T05:22:10.979Z,7.1
2023-03-26T05:23:27.205Z,7.1
2023-03-26T05:24:43.463Z,7.1
2023-03-26T05:25:59.699Z,7.1
2023-03-26T05:27:15.929Z,7.2
2023-03-26T05:28:31.181Z,7.2
2023-03-26T05:29:47.425Z,7.2
2023-03-26T05:31:03.664Z,7.2
2023-03-26T05:32:19.922Z,7.2
2023-03-26T05:33:36.157Z,7.2
2023-03-26T05:34:52.383Z,7.2
2023-03-26T05:36:08.627Z,7.2
2023-03-26T05:37:24.880Z,7.3
2023-03-26T05:38:41.114Z,7.2
2023-03-26T05:39:57.355Z,7.3
2023-03-26T05:41:13.583Z,7.3
2023-03-26T05:42:29.843Z,7.3
2023-03-26T05:43:46.068Z,7.3
2023-03-26T05:45:01.329Z,7.4
2023-03-26T05:46:17.561Z,7.4
2023-03-26T05:47:33.821Z,7.4
2023-03-26T05:48:50.054Z,7.4
2023-03-26T05:50:06.284Z,7.4
2023-03-26T05:51:22.523Z,7.4
2023-03-26T05:52:38.774Z,7.5
2023-03-26T05:53:55.002Z,7.5
2023-03-26T05:55:11.245Z,7.6
2023-03-26T05:56:27.497Z,7.6
2023-03-26T05:57:43.731Z,7.7
2023-03-26T06:00:16.217Z,7.7
2023-03-26T06:01:31.474Z,7.8
2023-03-26T06:02:47.699Z,7.8
2023-03-26T06:04:03.954Z,7.9
2023-03-26T06:05:20.180Z,7.9
2023-03-26T06:06:36.431Z,8
2023-03-26T06:07:52.664Z,8
2023-03-26T06:09:08.914Z,8
2023-03-26T06:10:25.000Z,8
2023-03-26T06:11:41.401Z,8.1
2023-03-26T06:12:57.641Z,8.1
2023-03-26T06:14:13.874Z,8.1
2023-03-26T06:15:30.112Z,8.1
2023-03-26T06:16:46.349Z,8.1
2023-03-26T06:18:01.614Z,8.2
2023-03-26T06:19:17.859Z,8.2
2023-03-26T06:20:34.086Z,8.2
2023-03-26T06:21:50.328Z,8.2
2023-03-26T06:23:06.570Z,8.2
2023-03-26T06:24:22.802Z,8.2
2023-03-26T06:25:39.044Z,8.3
2023-03-26T06:26:55.279Z,8.2
2023-03-26T06:28:11.536Z,8.2
2023-03-26T06:29:27.765Z,8.2
2023-03-26T06:30:44.012Z,8.3
2023-03-26T06:32:00.241Z,8.3
2023-03-26T06:33:16.484Z,8.3
2023-03-26T06:34:31.741Z,8.3
2023-03-26T06:35:47.992Z,8.3
2023-03-26T06:37:04.233Z,8.3
2023-03-26T06:39:36.712Z,8.4
2023-03-26T06:42:09.180Z,8.4
2023-03-26T06:44:41.659Z,8.4
2023-03-26T06:45:56.933Z,8.5
2023-03-26T06:47:12.189Z,8.5
2023-03-26T06:48:28.435Z,8.5
2023-03-26T06:49:44.662Z,8.5
2023-03-26T06:51:00.908Z,8.6
2023-03-26T06:52:17.156Z,8.6
2023-03-26T06:53:33.388Z,8.6
2023-03-26T06:54:49.628Z,8.6
2023-03-26T06:57:22.101Z,8.7
2023-03-26T06:58:38.341Z,8.6
2023-03-26T06:59:54.578Z,8.7
2023-03-26T07:01:10.821Z,8.7
2023-03-26T07:02:27.076Z,8.7
2023-03-26T07:03:42.320Z,8.7
2023-03-26T07:04:58.574Z,8.8
2023-03-26T07:06:14.807Z,8.8
2023-03-26T07:07:31.047Z,8.8
2023-03-26T07:08:47.282Z,8.9
2023-03-26T07:10:03.527Z,8.9
2023-03-26T07:11:19.759Z,8.9
2023-03-26T07:12:36.001Z,9
2023-03-26T07:13:51.266Z,9
2023-03-26T07:15:06.523Z,9
2023-03-26T07:16:22.754Z,8.9
2023-03-26T07:17:38.997Z,9
2023-03-26T07:20:11.479Z,9.1
2023-03-26T07:21:27.734Z,9.1
2023-03-26T07:22:43.966Z,9.2
2023-03-26T07:24:00.210Z,9.2
2023-03-26T07:25:16.447Z,9.2
2023-03-26T07:26:32.679Z,9.3
2023-03-26T07:27:48.916Z,9.3
2023-03-26T07:29:05.174Z,9.4
2023-03-26T07:30:21.396Z,9.4
2023-03-26T07:31:36.653Z,9.5
2023-03-26T07:32:52.897Z,9.6
2023-03-26T07:34:09.136Z,9.6
2023-03-26T07:35:25.374Z,9.6
2023-03-26T07:36:41.630Z,9.7
2023-03-26T07:37:57.863Z,9.8
2023-03-26T07:39:14.099Z,9.8
2023-03-26T07:40:30.346Z,9.8
2023-03-26T07:41:46.587Z,9.9
2023-03-26T07:43:02.830Z,9.9
2023-03-26T07:44:18.077Z,10
2023-03-26T07:45:34.317Z,10
2023-03-26T07:46:50.555Z,10
2023-03-26T07:48:06.807Z,10.1
2023-03-26T07:50:39.278Z,10.2
2023-03-26T07:51:55.527Z,10.2
2023-03-26T07:53:11.764Z,10.3
2023-03-26T07:54:28.010Z,10.3
2023-03-26T07:55:44.237Z,10.3
2023-03-26T07:57:00.487Z,10.3
2023-03-26T07:58:16.727Z,10.3
2023-03-26T07:59:32.962Z,10.3
2023-03-26T08:00:48.224Z,10.3
2023-03-26T08:02:04.453Z,10.3
2023-03-26T08:03:20.704Z,10.3
2023-03-26T08:04:36.934Z,10.3
2023-03-26T08:05:53.181Z,10.4
2023-03-26T08:08:25.658Z,10.4
2023-03-26T08:09:41.911Z,10.5
2023-03-26T08:10:58.136Z,10.5
2023-03-26T08:13:30.633Z,10.6
2023-03-26T08:16:02.121Z,10.6
2023-03-26T08:17:17.380Z,10.7
2023-03-26T08:18:32.647Z,10.7
2023-03-26T08:19:48.884Z,10.8
2023-03-26T08:21:05.120Z,10.9
2023-03-26T08:22:21.358Z,10.8
2023-03-26T08:23:37.598Z,10.9
2023-03-26T08:24:53.835Z,11
2023-03-26T08:26:10.080Z,10.9
2023-03-26T08:27:26.325Z,10.9
2023-03-26T08:28:42.551Z,10.9
2023-03-26T08:29:58.805Z,11
2023-03-26T08:31:14.067Z,11
2023-03-26T08:32:29.311Z,11.1
2023-03-26T08:33:45.554Z,11.1
2023-03-26T08:35:01.790Z,11
2023-03-26T08:36:18.048Z,11.1
2023-03-26T08:37:34.288Z,11
2023-03-26T08:38:50.513Z,11
2023-03-26T08:40:06.754Z,11
2023-03-26T08:41:22.996Z,11.1
2023-03-26T08:42:39.232Z,11.1
2023-03-26T08:43:55.487Z,11.2
2023-03-26T08:45:11.713Z,11.2
2023-03-26T08:46:27.968Z,11.2
2023-03-26T08:47:44.193Z,11.3
2023-03-26T08:48:59.459Z,11.2
2023-03-26T08:50:15.687Z,11.3
2023-03-26T08:51:31.939Z,11.3
2023-03-26T08:52:48.180Z,11.3
2023-03-26T08:54:04.421Z,11.4
2023-03-26T08:55:20.645Z,11.4
2023-03-26T08:56:36.899Z,11.5
2023-03-26T08:57:53.125Z,11.5
2023-03-26T08:59:09.378Z,11.6
2023-03-26T09:00:25.623Z,11.6
2023-03-26T09:01:41.856Z,11.6
2023-03-26T09:02:58.091Z,11.5
2023-03-26T09:04:14.327Z,11.5
2023-03-26T09:05:29.586Z,11.4
2023-03-26T09:06:45.821Z,11.5
2023-03-26T09:08:02.072Z,11.5
2023-03-26T09:09:18.303Z,11.4
2023-03-26T09:10:34.558Z,11.5
2023-03-26T09:11:50.782Z,11.6
2023-03-26T09:13:07.033Z,11.6
2023-03-26T09:14:23.266Z,11.7
2023-03-26T09:15:39.513Z,11.7
2023-03-26T09:16:55.749Z,11.9
2023-03-26T09:18:11.991Z,12
2023-03-26T09:19:28.236Z,12
2023-03-26T09:20:44.472Z,12
2023-03-26T09:21:59.722Z,12.1
2023-03-26T09:23:15.978Z,12.2
2023-03-26T09:24:32.210Z,12.2
2023-03-26T09:25:48.440Z,12.3
2023-03-26T09:27:04.685Z,12.4
2023-03-26T09:28:20.928Z,12.5
2023-03-26T09:29:37.162Z,12.5
2023-03-26T09:30:53.401Z,12.5
2023-03-26T09:32:09.644Z,12.6
2023-03-26T09:33:25.886Z,12.6
2023-03-26T09:34:42.129Z,12.7
2023-03-26T09:35:58.363Z,12.7
2023-03-26T09:37:14.612Z,12.7
2023-03-26T09:38:29.862Z,12.7
2023-03-26T09:39:46.104Z,12.7
2023-03-26T09:41:02.342Z,12.7
2023-03-26T09:42:18.592Z,12.7
2023-03-26T09:43:34.822Z,12.8
2023-03-26T09:44:51.056Z,12.8
2023-03-26T09:46:07.299Z,12.8
2023-03-26T09:47:23.534Z,12.8
2023-03-26T09:48:39.777Z,12.8
2023-03-26T09:49:56.030Z,12.8
2023-03-26T09:51:12.260Z,12.8
2023-03-26T09:52:28.513Z,12.8
2023-03-26T09:53:44.743Z,12.8
2023-03-26T09:54:59.991Z,12.8
2023-03-26T09:56:16.234Z,12.8
2023-03-26T09:57:32.468Z,12.7
2023-03-26T09:58:48.718Z,12.7
2023-03-26T10:00:04.952Z,12.8
2023-03-26T10:01:21.207Z,12.7
2023-03-26T10:02:37.438Z,12.8
2023-03-26T10:03:53.674Z,12.8
2023-03-26T10:05:09.909Z,12.9
2023-03-26T10:06:26.149Z,12.9
2023-03-26T10:07:42.391Z,13
2023-03-26T10:08:58.631Z,13
2023-03-26T10:10:14.872Z,13
2023-03-26T10:11:30.134Z,13.1
2023-03-26T10:12:46.380Z,13.1
2023-03-26T10:14:02.620Z,13.1
2023-03-26T10:15:18.844Z,13.2
2023-03-26T10:16:35.096Z,13.2
2023-03-26T10:17:51.341Z,13.3
2023-03-26T10:19:07.577Z,13.2
2023-03-26T10:20:23.819Z,13.3
2023-03-26T10:21:40.048Z,13.3
2023-03-26T10:22:56.295Z,13.4
2023-03-26T10:24:12.525Z,13.5
2023-03-26T10:25:28.764Z,13.5
2023-03-26T10:26:45.004Z,13.5
2023-03-26T10:28:00.259Z,13.6
2023-03-26T10:29:16.505Z,13.6
2023-03-26T10:30:32.742Z,13.6
2023-03-26T10:31:48.993Z,13.6
2023-03-26T10:33:05.226Z,13.6
2023-03-26T10:34:21.468Z,13.6
2023-03-26T10:35:37.708Z,13.6
2023-03-26T10:36:53.946Z,13.6
2023-03-26T10:38:10.198Z,13.5
2023-03-26T10:39:26.426Z,13.6
2023-03-26T10:40:42.674Z,13.6
2023-03-26T10:41:58.913Z,13.6
2023-03-26T10:43:15.156Z,13.5
2023-03-26T10:44:30.418Z,13.6
2023-03-26T10:45:46.645Z,13.7
2023-03-26T10:47:02.880Z,13.7
2023-03-26T10:48:19.134Z,13.8
2023-03-26T10:49:35.369Z,13.8
2023-03-26T10:50:51.598Z,13.8
2023-03-26T10:52:07.849Z,13.9
2023-03-26T10:53:24.085Z,13.9
2023-03-26T10:54:40.331Z,13.9
2023-03-26T10:55:56.575Z,14
2023-03-26T10:57:12.802Z,14
2023-03-26T10:58:29.045Z,14.1
2023-03-26T10:59:45.288Z,14.1
2023-03-26T11:01:00.550Z,14.1
2023-03-26T11:02:16.786Z,14.2
2023-03-26T11:03:33.023Z,14.2
2023-03-26T11:04:49.258Z,14.3
2023-03-26T11:06:05.509Z,14.4
2023-03-26T11:07:21.736Z,14.4
2023-03-26T11:08:37.977Z,14.5
2023-03-26T11:09:54.221Z,14.6
2023-03-26T11:11:10.465Z,14.6
2023-03-26T11:12:26.690Z,14.6
2023-03-26T11:13:42.941Z,14.6
2023-03-26T11:14:59.170Z,14.5
2023-03-26T11:16:15.425Z,14.6
2023-03-26T11:17:30.677Z,14.6
2023-03-26T11:18:46.921Z,14.6
2023-03-26T11:20:03.154Z,14.6
2023-03-26T11:21:19.397Z,14.6
2023-03-26T11:22:35.645Z,14.6
2023-03-26T11:23:51.879Z,14.6
2023-03-26T11:25:08.111Z,14.6
2023-03-26T11:26:24.356Z,14.6
2023-03-26T11:27:40.599Z,14.6
2023-03-26T11:30:13.079Z,14.4
2023-03-26T11:31:29.319Z,14.4
2023-03-26T11:32:45.560Z,14.2
2023-03-26T11:34:00.802Z,14.2
2023-03-26T11:35:17.050Z,14.2
2023-03-26T11:36:33.280Z,14.2
2023-03-26T11:37:49.539Z,14.2
2023-03-26T11:39:05.777Z,14.2
2023-03-26T11:40:22.008Z,14.3
2023-03-26T11:41:38.247Z,14.3
2023-03-26T11:42:54.482Z,14.3
2023-03-26T11:44:10.730Z,14.3
2023-03-26T11:45:26.979Z,14.4
2023-03-26T11:46:43.200Z,14.4
2023-03-26T11:47:59.455Z,14.4
2023-03-26T11:49:15.690Z,14.4
2023-03-26T11:50:30.938Z,14.4
2023-03-26T11:51:47.182Z,14.4
2023-03-26T11:53:03.434Z,14.4
2023-03-26T11:54:19.664Z,14.5
2023-03-26T11:55:35.909Z,14.5
2023-03-26T11:56:52.150Z,14.5
2023-03-26T11:58:08.386Z,14.5
2023-03-26T11:59:23.653Z,14.6
2023-03-26T12:00:39.892Z,14.5
2023-03-26T12:01:56.128Z,14.5
2023-03-26T12:03:12.359Z,14.5
2023-03-26T12:04:28.602Z,14.4
2023-03-26T12:05:44.857Z,14.4
2023-03-26T12:07:01.091Z,14.4
2023-03-26T12:08:17.333Z,14.4
2023-03-26T12:09:33.561Z,14.5
2023-03-26T12:10:49.800Z,14.4
2023-03-26T12:12:06.041Z,14.5
2023-03-26T12:13:22.280Z,14.5
2023-03-26T12:14:38.514Z,14.5
2023-03-26T12:15:53.780Z,14.5
2023-03-26T12:17:10.026Z,14.5
2023-03-26T12:18:26.271Z,14.4
2023-03-26T12:19:42.506Z,14.4
2023-03-26T12:20:58.739Z,14.5
2023-03-26T12:22:14.986Z,14.5
2023-03-26T12:23:31.217Z,14.5
2023-03-26T12:24:47.471Z,14.5
2023-03-26T12:26:03.700Z,14.5
2023-03-26T12:27:19.948Z,14.5
2023-03-26T12:28:36.183Z,14.6
2023-03-26T12:29:52.420Z,14.7
2023-03-26T12:31:08.652Z,14.7
2023-03-26T12:32:23.907Z,14.8
2023-03-26T12:33:40.156Z,14.9
2023-03-26T12:34:56.406Z,14.9
2023-03-26T12:36:12.639Z,14.9
2023-03-26T12:37:28.875Z,14.9
2023-03-26T12:38:45.123Z,15
2023-03-26T12:40:01.359Z,15
2023-03-26T12:41:17.577Z,15
2023-03-26T12:42:33.835Z,15
2023-03-26T12:43:50.078Z,14.9
2023-03-26T12:45:06.321Z,14.9
2023-03-26T12:46:22.554Z,14.8
2023-03-26T12:47:38.795Z,14.7
2023-03-26T12:48:54.045Z,14.6
2023-03-26T12:50:10.285Z,14.4
2023-03-26T12:51:26.526Z,14.2
2023-03-26T12:52:42.775Z,14.1
2023-03-26T12:55:15.243Z,13.8
2023-03-26T12:56:31.496Z,13.7
2023-03-26T12:57:47.724Z,13.5
2023-03-26T12:59:03.975Z,13.5
2023-03-26T13:00:20.200Z,13.4
2023-03-26T13:01:36.461Z,13.3
2023-03-26T13:02:52.691Z,13.2
2023-03-26T13:04:08.924Z,13.1
2023-03-26T13:05:24.179Z,13
2023-03-26T13:06:40.417Z,12.9
2023-03-26T13:07:56.673Z,12.8
2023-03-26T13:10:29.147Z,12.7
2023-03-26T13:11:45.395Z,12.6
2023-03-26T13:13:01.623Z,12.4
2023-03-26T13:14:17.870Z,12.4
2023-03-26T13:15:34.097Z,12.2
2023-03-26T13:16:50.338Z,12
2023-03-26T13:18:06.600Z,11.9
2023-03-26T13:19:22.825Z,11.8
2023-03-26T13:20:39.063Z,11.6
2023-03-26T13:21:54.332Z,11.5
2023-03-26T13:23:10.565Z,11.4
2023-03-26T13:24:26.805Z,11.4
2023-03-26T13:25:43.051Z,11.2
2023-03-26T13:26:59.277Z,11.2
2023-03-26T13:28:15.524Z,11.2
2023-03-26T13:29:31.767Z,11.2
2023-03-26T13:30:47.998Z,11.2
2023-03-26T13:33:20.489Z,11.2
2023-03-26T13:34:36.733Z,11.2
2023-03-26T13:35:52.954Z,11.2
2023-03-26T13:37:09.201Z,11.2
2023-03-26T13:38:24.470Z,11.2
2023-03-26T13:39:40.694Z,11.2
2023-03-26T13:40:56.944Z,11.2
2023-03-26T13:42:13.173Z,11.2
2023-03-26T13:43:29.429Z,11.3
2023-03-26T13:44:45.663Z,11.4
2023-03-26T13:46:01.905Z,11.4
2023-03-26T13:47:18.142Z,11.5
2023-03-26T13:48:34.373Z,11.5
2023-03-26T13:49:50.622Z,11.5
2023-03-26T13:51:06.857Z,11.6
2023-03-26T13:52:23.093Z,11.6
2023-03-26T13:53:39.351Z,11.6
2023-03-26T13:54:54.590Z,11.5
2023-03-26T13:56:10.830Z,11.5
2023-03-26T13:57:27.070Z,11.5
2023-03-26T13:58:43.325Z,11.4
2023-03-26T13:59:59.550Z,11.4
2023-03-26T14:01:15.806Z,11.4
2023-03-26T14:02:32.037Z,11.4
2023-03-26T14:03:48.266Z,11.3
2023-03-26T14:05:04.526Z,11.2
2023-03-26T14:06:20.748Z,11.2
2023-03-26T14:07:37.007Z,11.2
2023-03-26T14:08:53.236Z,11.1
2023-03-26T14:10:09.472Z,11.1
2023-03-26T14:11:24.726Z,11.1
2023-03-26T14:12:40.966Z,11.1
2023-03-26T14:13:57.214Z,11
2023-03-26T14:15:13.444Z,11
2023-03-26T14:16:29.701Z,11
2023-03-26T14:17:45.931Z,11
2023-03-26T14:19:02.187Z,10.9
2023-03-26T14:20:18.413Z,11
2023-03-26T14:21:34.644Z,10.9
2023-03-26T14:22:50.889Z,10.9
2023-03-26T14:24:07.124Z,10.9
2023-03-26T14:25:23.365Z,10.9
2023-03-26T14:27:55.853Z,10.9
2023-03-26T14:29:11.106Z,10.9
2023-03-26T14:30:27.353Z,10.9
2023-03-26T14:31:43.580Z,10.9
2023-03-26T14:32:59.840Z,10.9
2023-03-26T14:34:16.069Z,10.9
2023-03-26T14:35:32.311Z,10.9
2023-03-26T14:36:48.000Z,10.9
2023-03-26T14:38:04.792Z,10.9
2023-03-26T14:39:21.030Z,10.9
2023-03-26T14:40:37.276Z,10.9
2023-03-26T14:41:53.516Z,10.9
2023-03-26T14:43:09.742Z,10.8
2023-03-26T14:44:25.987Z,10.8
2023-03-26T14:45:41.249Z,10.8
2023-03-26T14:46:57.485Z,10.8
2023-03-26T14:48:13.727Z,10.7
2023-03-26T14:50:46.204Z,10.6
2023-03-26T14:52:02.447Z,10.7
2023-03-26T14:53:18.697Z,10.6
2023-03-26T14:54:34.922Z,10.6
2023-03-26T14:55:51.000Z,10.6
2023-03-26T14:57:07.402Z,10.6
2023-03-26T14:59:39.893Z,10.5
2023-03-26T15:00:56.129Z,10.6
2023-03-26T15:02:11.375Z,10.5
2023-03-26T15:03:27.623Z,10.5
2023-03-26T15:04:43.867Z,10.5
2023-03-26T15:06:00.094Z,10.5
2023-03-26T15:07:16.337Z,10.5
2023-03-26T15:08:32.582Z,10.4
2023-03-26T15:09:48.832Z,10.4
2023-03-26T15:11:05.072Z,10.4
2023-03-26T15:12:21.306Z,10.3
2023-03-26T15:13:37.000Z,10.3
2023-03-26T15:14:53.788Z,10.3
2023-03-26T15:16:10.015Z,10.3
2023-03-26T15:17:26.259Z,10.3
2023-03-26T15:18:41.520Z,10.3
2023-03-26T15:19:57.753Z,10.2
2023-03-26T15:21:13.995Z,10.2
2023-03-26T15:22:30.234Z,10.2
2023-03-26T15:23:46.488Z,10.2
2023-03-26T15:25:02.722Z,10.2
2023-03-26T15:27:35.199Z,10.1
2023-03-26T15:28:51.443Z,10.1
2023-03-26T15:30:07.681Z,10.1
2023-03-26T15:31:23.916Z,10.1
2023-03-26T15:32:40.162Z,10.1
2023-03-26T15:33:56.400Z,10.1
2023-03-26T15:35:11.665Z,10
2023-03-26T15:36:27.892Z,10
2023-03-26T15:37:44.129Z,10
2023-03-26T15:39:00.380Z,9.9
2023-03-26T15:40:16.610Z,10
2023-03-26T15:41:32.852Z,9.9
2023-03-26T15:42:49.105Z,9.9
2023-03-26T15:44:05.337Z,9.9
2023-03-26T15:45:21.583Z,9.9
2023-03-26T15:46:37.807Z,9.9
2023-03-26T15:47:54.051Z,9.8
2023-03-26T15:50:26.548Z,9.8
2023-03-26T15:51:41.797Z,9.8
2023-03-26T15:52:58.030Z,9.8
2023-03-26T15:55:30.507Z,9.8
2023-03-26T15:56:46.744Z,9.8
2023-03-26T15:58:03.004Z,9.7
2023-03-26T15:59:19.228Z,9.8
2023-03-26T16:00:35.464Z,9.8
2023-03-26T16:01:51.713Z,9.7
2023-03-26T16:03:07.945Z,9.7
2023-03-26T16:04:24.203Z,9.7
2023-03-26T16:06:56.684Z,9.7
2023-03-26T16:08:11.938Z,9.7
2023-03-26T16:09:27.187Z,9.7
2023-03-26T16:10:43.439Z,9.6
2023-03-26T16:11:59.670Z,9.7
2023-03-26T16:13:15.907Z,9.7
2023-03-26T16:14:31.172Z,9.7
2023-03-26T16:15:47.410Z,9.7
2023-03-26T16:17:03.643Z,9.7
2023-03-26T16:18:19.902Z,9.7
2023-03-26T16:19:36.141Z,9.7
2023-03-26T16:20:52.370Z,9.7
2023-03-26T16:22:07.633Z,9.7
2023-03-26T16:23:22.894Z,9.6
2023-03-26T16:24:39.128Z,9.6
2023-03-26T16:25:55.360Z,9.6
2023-03-26T16:28:27.858Z,9.6
2023-03-26T16:29:44.084Z,9.6
2023-03-26T16:31:00.339Z,9.6
2023-03-26T16:32:16.577Z,9.6
2023-03-26T16:33:32.802Z,9.6
2023-03-26T16:34:49.042Z,9.6
2023-03-26T16:36:05.297Z,9.6
2023-03-26T16:37:21.537Z,9.6
2023-03-26T16:38:37.770Z,9.6
2023-03-26T16:39:53.022Z,9.6
2023-03-26T16:41:09.278Z,9.6
2023-03-26T16:42:25.509Z,9.6
2023-03-26T16:43:41.741Z,9.6
2023-03-26T16:44:57.991Z,9.6
2023-03-26T16:46:14.228Z,9.6
2023-03-26T16:47:30.472Z,9.6
2023-03-26T16:48:46.719Z,9.5
2023-03-26T16:50:02.954Z,9.5
2023-03-26T16:51:19.189Z,9.5
2023-03-26T16:52:35.429Z,9.5
2023-03-26T16:53:51.671Z,9.5
2023-03-26T16:55:07.906Z,9.5
2023-03-26T16:56:23.155Z,9.4
2023-03-26T16:57:39.400Z,9.4
2023-03-26T16:58:55.637Z,9.4
2023-03-26T17:00:11.881Z,9.4
2023-03-26T17:01:28.122Z,9.4
2023-03-26T17:02:44.361Z,9.4
2023-03-26T17:04:00.601Z,9.4
2023-03-26T17:05:16.840Z,9.3
2023-03-26T17:07:49.331Z,9.3
2023-03-26T17:09:05.573Z,9.3
2023-03-26T17:10:21.801Z,9.2
2023-03-26T17:11:38.055Z,9.2
2023-03-26T17:12:53.306Z,9.2
2023-03-26T17:14:09.539Z,9.2
2023-03-26T17:15:25.777Z,9.1
2023-03-26T17:16:42.021Z,9.1
2023-03-26T17:17:58.272Z,9.1
2023-03-26T17:19:14.493Z,9.1
2023-03-26T17:20:30.736Z,9
2023-03-26T17:21:46.980Z,9
2023-03-26T17:23:03.220Z,9
2023-03-26T17:24:19.473Z,9
2023-03-26T17:25:35.709Z,9
2023-03-26T17:26:51.936Z,9
2023-03-26T17:28:08.180Z,9
2023-03-26T17:29:23.444Z,9
2023-03-26T17:30:39.689Z,9
2023-03-26T17:31:55.912Z,9
2023-03-26T17:33:12.171Z,9
2023-03-26T17:34:28.398Z,9
2023-03-26T17:35:44.636Z,8.9
2023-03-26T17:37:00.882Z,8.9
2023-03-26T17:38:17.123Z,9
2023-03-26T17:39:33.368Z,8.9
2023-03-26T17:40:49.592Z,8.9
2023-03-26T17:42:05.836Z,8.9
2023-03-26T17:43:22.075Z,8.9
2023-03-26T17:44:38.324Z,8.9
2023-03-26T17:45:53.584Z,8.9
2023-03-26T17:47:09.823Z,8.9
2023-03-26T17:48:26.056Z,8.9
2023-03-26T17:49:42.305Z,8.9
2023-03-26T17:50:58.535Z,8.9
2023-03-26T17:52:14.784Z,8.8
2023-03-26T17:53:31.028Z,8.8
2023-03-26T17:54:47.261Z,8.8
2023-03-26T17:56:03.505Z,8.8
2023-03-26T17:57:19.730Z,8.8
2023-03-26T17:58:35.976Z,8.7
2023-03-26T17:59:52.215Z,8.7
2023-03-26T18:01:08.453Z,8.7
2023-03-26T18:02:23.772Z,8.7
2023-03-26T18:03:40.060Z,8.7
2023-03-26T18:06:12.647Z,8.7
2023-03-26T18:07:28.944Z,8.7